createdAt,value
2019-05-16T00:01:12.223Z,98549.47
2019-05-16T00:03:42.417Z,98542.55
2019-05-16T00:06:12.733Z,98542.22
2019-05-16T00:08:42.926Z,98542.60
2019-05-16T00:11:13.157Z,98536.53
2019-05-16T00:13:43.348Z,98536.83
2019-05-16T00:16:13.563Z,98529.72
2019-05-16T00:18:43.758Z,98525.40
2019-05-16T00:21:14.182Z,98527.14
2019-05-16T00:23:44.474Z,98521.36
2019-05-16T00:26:14.679Z,98520.23
2019-05-16T00:28:48.456Z,98517.58
2019-05-16T00:31:18.494Z,98510.30
2019-05-16T00:33:48.919Z,98516.53
2019-05-16T00:36:19.169Z,98512.75
2019-05-16T00:38:49.338Z,98512.10
2019-05-16T00:41:19.554Z,98504.99
2019-05-16T00:43:50.081Z,98502.25
2019-05-16T00:46:20.380Z,98495.53
2019-05-16T00:48:50.550Z,98488.05
2019-05-16T00:51:21.430Z,98488.41
2019-05-16T00:53:51.613Z,98489.83
2019-05-16T00:56:22.613Z,98479.63
2019-05-16T00:58:53.965Z,98469.21
2019-05-16T01:01:24.243Z,98478.20
2019-05-16T01:03:55.913Z,98471.00
2019-05-16T01:06:28.730Z,98476.58
2019-05-16T01:08:59.438Z,98468.45
2019-05-16T01:11:29.969Z,98469.65
2019-05-16T01:14:00.366Z,98478.06
2019-05-16T01:16:30.931Z,98472.19
2019-05-16T01:19:01.511Z,98479.58
2019-05-16T01:21:32.094Z,98476.37
2019-05-16T01:24:02.316Z,98477.33
2019-05-16T01:26:33.833Z,98476.73
2019-05-16T01:29:04.079Z,98471.63
2019-05-16T01:31:34.332Z,98479.86
2019-05-16T01:34:04.702Z,98482.99
2019-05-16T01:36:38.036Z,98476.16
2019-05-16T01:39:07.994Z,98478.15
2019-05-16T01:41:38.353Z,98476.91
2019-05-16T01:44:08.924Z,98472.34
2019-05-16T01:46:40.177Z,98472.34
2019-05-16T01:49:10.442Z,98476.89
2019-05-16T01:51:40.654Z,98478.77
2019-05-16T01:54:11.226Z,98483.12
2019-05-16T01:56:42.063Z,98480.07
2019-05-16T01:59:12.594Z,98484.81
2019-05-16T02:01:43.125Z,98489.63
2019-05-16T02:04:13.312Z,98481.00
2019-05-16T02:06:51.745Z,98478.72
2019-05-16T02:09:15.445Z,98481.80
2019-05-16T02:11:48.008Z,98484.16
2019-05-16T02:14:18.128Z,98483.28
2019-05-16T02:19:38.349Z,98475.20
2019-05-16T02:22:09.075Z,98474.34
2019-05-16T02:24:39.359Z,98477.28
2019-05-16T02:27:12.689Z,98474.05
2019-05-16T02:29:43.035Z,98471.37
2019-05-16T02:32:13.259Z,98467.46
2019-05-16T02:34:43.537Z,98471.06
2019-05-16T02:37:24.578Z,98468.48
2019-05-16T02:39:45.765Z,98467.34
2019-05-16T02:42:15.958Z,98465.80
2019-05-16T02:44:46.146Z,98463.44
2019-05-16T02:47:16.325Z,98467.48
2019-05-16T02:49:46.518Z,98468.63
2019-05-16T02:52:16.736Z,98471.49
2019-05-16T02:54:47.286Z,98463.86
2019-05-16T02:57:17.468Z,98457.24
2019-05-16T02:59:50.663Z,98463.86
2019-05-16T03:02:20.706Z,98467.34
2019-05-16T03:04:51.973Z,98460.62
2019-05-16T03:07:37.826Z,98460.14
2019-05-16T03:09:57.191Z,98462.56
2019-05-16T03:12:31.019Z,98461.52
2019-05-16T03:15:02.624Z,98466.33
2019-05-16T03:17:40.503Z,98460.39
2019-05-16T03:20:11.203Z,98459.55
2019-05-16T03:22:43.094Z,98457.45
2019-05-16T03:25:13.297Z,98454.61
2019-05-16T03:27:43.497Z,98456.55
2019-05-16T03:30:16.346Z,98456.50
2019-05-16T03:32:46.205Z,98459.08
2019-05-16T03:35:17.335Z,98456.06
2019-05-16T03:37:55.664Z,98455.84
2019-05-16T03:40:25.370Z,98461.67
2019-05-16T03:42:56.522Z,98454.52
2019-05-16T03:45:26.734Z,98454.44
2019-05-16T03:47:57.259Z,98461.30
2019-05-16T03:50:30.407Z,98460.17
2019-05-16T03:53:01.568Z,98458.48
2019-05-16T03:55:32.782Z,98464.12
2019-05-16T03:58:03.499Z,98455.53
2019-05-16T04:00:54.164Z,98456.33
2019-05-16T04:03:28.122Z,98458.12
2019-05-16T04:05:56.677Z,98460.47
2019-05-16T04:08:30.694Z,98452.36
2019-05-16T04:11:01.271Z,98454.69
2019-05-16T04:13:32.026Z,98454.73
2019-05-16T04:16:03.172Z,98452.69
2019-05-16T04:18:34.616Z,98446.50
2019-05-16T04:21:05.884Z,98455.58
2019-05-16T04:23:36.096Z,98459.96
2019-05-16T04:26:06.669Z,98456.88
2019-05-16T04:28:41.189Z,98455.48
2019-05-16T04:31:11.084Z,98467.14
2019-05-16T04:33:41.996Z,98466.52
2019-05-16T04:36:13.572Z,98465.45
2019-05-16T04:38:46.769Z,98464.55
2019-05-16T04:41:15.955Z,98462.69
2019-05-16T04:43:46.681Z,98471.62
2019-05-16T04:46:16.899Z,98469.15
2019-05-16T04:48:47.070Z,98460.27
2019-05-16T04:51:17.442Z,98461.89
2019-05-16T04:53:50.716Z,98461.06
2019-05-16T04:56:21.751Z,98458.98
2019-05-16T04:58:51.885Z,98458.40
2019-05-16T05:01:23.184Z,98462.19
2019-05-16T05:04:06.277Z,98463.72
2019-05-16T05:06:25.296Z,98461.60
2019-05-16T05:08:58.999Z,98455.33
2019-05-16T05:11:30.503Z,98455.31
2019-05-16T05:14:00.993Z,98461.05
2019-05-16T05:16:31.351Z,98457.09
2019-05-16T05:19:01.533Z,98450.70
2019-05-16T05:21:32.181Z,98456.93
2019-05-16T05:24:02.670Z,98455.03
2019-05-16T05:26:32.919Z,98459.20
2019-05-16T05:29:03.429Z,98459.20
2019-05-16T05:31:35.056Z,98461.16
2019-05-16T05:34:05.917Z,98451.22
2019-05-16T05:36:36.116Z,98459.13
2019-05-16T05:39:12.134Z,98457.41
2019-05-16T05:41:40.118Z,98453.55
2019-05-16T05:44:11.141Z,98451.97
2019-05-16T05:46:41.414Z,98440.28
2019-05-16T05:49:11.947Z,98447.16
2019-05-16T05:51:42.518Z,98434.77
2019-05-16T05:54:13.394Z,98445.40
2019-05-16T05:56:44.120Z,98437.21
2019-05-16T05:59:14.599Z,98435.57
2019-05-16T06:01:45.255Z,98436.02
2019-05-16T06:04:15.477Z,98439.73
2019-05-16T06:06:45.769Z,98433.98
2019-05-16T06:09:26.157Z,98435.25
2019-05-16T06:11:50.178Z,98430.23
2019-05-16T06:14:21.593Z,98438.52
2019-05-16T06:16:51.952Z,98435.41
2019-05-16T06:19:22.231Z,98435.80
2019-05-16T06:21:52.515Z,98434.71
2019-05-16T06:24:22.828Z,98429.78
2019-05-16T06:26:53.385Z,98420.53
2019-05-16T06:29:23.757Z,98421.20
2019-05-16T06:31:54.036Z,98414.55
2019-05-16T06:34:24.368Z,98421.41
2019-05-16T06:36:55.236Z,98424.03
2019-05-16T06:39:37.497Z,98423.48
2019-05-16T06:41:57.650Z,98422.83
2019-05-16T06:44:27.906Z,98423.09
2019-05-16T06:47:15.015Z,98424.30
2019-05-16T06:49:30.462Z,98428.51
2019-05-16T06:52:02.418Z,98427.70
2019-05-16T06:54:32.766Z,98432.72
2019-05-16T06:57:03.423Z,98432.95
2019-05-16T06:59:33.648Z,98435.69
2019-05-16T07:02:04.027Z,98435.23
2019-05-16T07:04:34.357Z,98442.27
2019-05-16T07:07:05.279Z,98440.27
2019-05-16T07:09:35.535Z,98444.27
2019-05-16T07:12:05.834Z,98444.59
2019-05-16T07:14:36.425Z,98432.11
2019-05-16T07:17:09.700Z,98431.48
2019-05-16T07:19:40.935Z,98430.21
2019-05-16T07:22:11.891Z,98421.53
2019-05-16T07:24:42.085Z,98420.59
2019-05-16T07:27:12.582Z,98415.13
2019-05-16T07:29:43.586Z,98412.42
2019-05-16T07:32:13.761Z,98409.98
2019-05-16T07:34:43.961Z,98401.80
2019-05-16T07:37:14.134Z,98403.20
2019-05-16T07:39:44.708Z,98397.80
2019-05-16T07:42:14.902Z,98398.77
2019-05-16T07:44:45.118Z,98390.66
2019-05-16T07:47:15.298Z,98382.66
2019-05-16T07:49:46.126Z,98383.49
2019-05-16T07:52:16.302Z,98387.27
2019-05-16T07:54:46.829Z,98381.60
2019-05-16T07:57:20.402Z,98380.77
2019-05-16T07:59:50.739Z,98381.92
2019-05-16T08:02:22.229Z,98373.76
2019-05-16T08:04:52.436Z,98371.20
2019-05-16T08:07:22.624Z,98376.13
2019-05-16T08:09:53.892Z,98368.64
2019-05-16T08:12:26.392Z,98369.39
2019-05-16T08:14:55.976Z,98357.27
2019-05-16T08:17:26.510Z,98357.27
2019-05-16T08:19:56.726Z,98358.88
2019-05-16T08:22:26.909Z,98353.38
2019-05-16T08:24:59.929Z,98352.47
2019-05-16T08:27:31.390Z,98346.22
2019-05-16T08:30:02.697Z,98348.79
2019-05-16T08:32:34.022Z,98352.35
2019-05-16T08:35:04.728Z,98352.97
2019-05-16T08:37:42.628Z,98344.48
2019-05-16T08:40:07.414Z,98341.65
2019-05-16T08:42:41.265Z,98341.27
2019-05-16T08:45:12.651Z,98344.22
2019-05-16T08:47:42.796Z,98337.32
2019-05-16T08:50:14.550Z,98335.90
2019-05-16T08:52:45.231Z,98341.31
2019-05-16T08:55:16.147Z,98331.41
2019-05-16T08:57:46.328Z,98328.91
2019-05-16T09:00:21.761Z,98323.41
2019-05-16T09:02:52.514Z,98319.83
2019-05-16T09:05:22.907Z,98320.96
2019-05-16T09:08:00.701Z,98312.89
2019-05-16T09:12:58.135Z,98309.67
2019-05-16T09:15:28.701Z,98309.82
2019-05-16T09:17:58.919Z,98311.13
2019-05-16T09:20:29.143Z,98307.59
2019-05-16T09:22:59.636Z,98306.27
2019-05-16T09:25:29.866Z,98307.81
2019-05-16T09:28:00.389Z,98307.08
2019-05-16T09:30:30.679Z,98305.60
2019-05-16T09:33:00.876Z,98305.60
2019-05-16T09:35:31.127Z,98292.35
2019-05-16T09:38:01.319Z,98285.77
2019-05-16T09:40:31.551Z,98290.41
2019-05-16T09:43:01.770Z,98285.41
2019-05-16T09:45:31.988Z,98279.73
2019-05-16T09:48:02.885Z,98276.05
2019-05-16T09:50:33.083Z,98282.09
2019-05-16T09:53:03.298Z,98277.25
2019-05-16T09:55:33.496Z,98279.61
2019-05-16T09:58:07.117Z,98276.32
2019-05-16T10:00:37.363Z,98276.65
2019-05-16T10:03:07.839Z,98271.23
2019-05-16T10:05:38.092Z,98265.41
2019-05-16T10:08:08.903Z,98257.59
2019-05-16T10:10:39.148Z,98264.45
2019-05-16T10:13:09.510Z,98259.88
2019-05-16T10:15:39.705Z,98257.94
2019-05-16T10:18:09.903Z,98263.24
2019-05-16T10:20:40.103Z,98264.59
2019-05-16T10:23:14.874Z,98258.61
2019-05-16T10:25:42.365Z,98250.86
2019-05-16T10:28:12.968Z,98251.02
2019-05-16T10:30:43.182Z,98248.41
2019-05-16T10:33:18.851Z,98241.58
2019-05-16T10:35:47.983Z,98242.27
2019-05-16T10:38:18.908Z,98240.68
2019-05-16T10:40:49.096Z,98242.48
2019-05-16T10:43:19.376Z,98233.73
2019-05-16T10:45:49.562Z,98235.24
2019-05-16T10:48:19.799Z,98234.61
2019-05-16T10:50:50.296Z,98242.52
2019-05-16T10:53:43.060Z,98231.56
2019-05-16T10:55:52.606Z,98235.36
2019-05-16T10:58:35.567Z,98229.33
2019-05-16T11:01:15.117Z,98226.88
2019-05-16T11:03:28.234Z,98226.19
2019-05-16T11:06:05.481Z,98222.84
2019-05-16T11:08:30.590Z,98234.73
2019-05-16T11:11:01.110Z,98224.66
2019-05-16T11:13:31.767Z,98229.17
2019-05-16T11:16:01.977Z,98226.92
2019-05-16T11:18:32.515Z,98229.25
2019-05-16T11:21:02.706Z,98227.88
2019-05-16T11:23:36.583Z,98228.53
2019-05-16T11:26:05.858Z,98225.30
2019-05-16T11:28:36.989Z,98219.51
2019-05-16T11:31:07.811Z,98217.63
2019-05-16T11:33:39.567Z,98213.41
2019-05-16T11:36:12.721Z,98208.21
2019-05-16T11:38:41.693Z,98208.21
2019-05-16T11:41:11.991Z,98211.49
2019-05-16T11:43:42.212Z,98213.30
2019-05-16T11:46:12.726Z,98214.58
2019-05-16T11:48:42.941Z,98216.23
2019-05-16T11:51:13.127Z,98208.66
2019-05-16T11:53:43.408Z,98205.01
2019-05-16T11:56:13.642Z,98206.61
2019-05-16T11:58:43.862Z,98206.61
2019-05-16T12:01:16.376Z,98203.38
2019-05-16T12:03:46.815Z,98198.75
2019-05-16T12:06:17.253Z,98202.73
2019-05-16T12:08:48.822Z,98203.92
2019-05-16T12:11:19.013Z,98194.71
2019-05-16T12:13:49.229Z,98193.11
2019-05-16T12:16:19.730Z,98191.33
2019-05-16T12:18:49.942Z,98192.89
2019-05-16T12:21:20.454Z,98188.84
2019-05-16T12:23:50.673Z,98191.69
2019-05-16T12:26:20.851Z,98189.07
2019-05-16T12:28:52.449Z,98188.17
2019-05-16T12:31:23.343Z,98189.20
2019-05-16T12:33:53.577Z,98186.92
2019-05-16T12:36:23.753Z,98185.98
2019-05-16T12:38:53.962Z,98184.03
2019-05-16T12:41:24.157Z,98179.16
2019-05-16T12:43:57.363Z,98182.10
2019-05-16T12:46:27.230Z,98181.13
2019-05-16T12:48:57.750Z,98179.17
2019-05-16T12:51:29.001Z,98175.80
2019-05-16T12:53:59.585Z,98175.83
2019-05-16T12:56:29.764Z,98175.45
2019-05-16T12:58:59.970Z,98169.58
2019-05-16T13:01:34.008Z,98166.17
2019-05-16T13:04:02.313Z,98167.69
2019-05-16T13:06:32.488Z,98160.78
2019-05-16T13:09:02.698Z,98161.95
2019-05-16T13:11:34.058Z,98155.27
2019-05-16T13:14:08.041Z,98152.58
2019-05-16T13:16:37.593Z,98151.86
2019-05-16T13:19:08.286Z,98151.70
2019-05-16T13:21:38.459Z,98152.02
2019-05-16T13:24:08.952Z,98147.39
2019-05-16T13:26:39.146Z,98145.25
2019-05-16T13:29:09.390Z,98137.48
2019-05-16T13:31:39.602Z,98132.22
2019-05-16T13:34:10.131Z,98128.55
2019-05-16T13:36:40.648Z,98122.11
2019-05-16T13:39:10.867Z,98123.48
2019-05-16T13:41:42.385Z,98115.55
2019-05-16T13:44:18.636Z,98116.74
2019-05-16T13:46:46.791Z,98111.98
2019-05-16T13:49:18.453Z,98111.19
2019-05-16T13:51:48.636Z,98112.98
2019-05-16T13:54:18.870Z,98117.44
2019-05-16T13:56:49.075Z,98110.92
2019-05-16T13:59:19.308Z,98106.02
2019-05-16T14:01:49.605Z,98109.03
2019-05-16T14:04:20.503Z,98108.39
2019-05-16T14:06:50.702Z,98104.42
2019-05-16T14:09:20.942Z,98101.59
2019-05-16T14:11:51.120Z,98094.30
2019-05-16T14:14:34.632Z,98096.49
2019-05-16T14:16:53.309Z,98092.61
2019-05-16T14:19:23.660Z,98090.05
2019-05-16T14:21:56.811Z,98095.66
2019-05-16T14:24:28.159Z,98091.97
2019-05-16T14:26:57.692Z,98087.55
2019-05-16T14:29:28.024Z,98092.41
2019-05-16T14:31:58.372Z,98082.33
2019-05-16T14:34:28.583Z,98089.20
2019-05-16T14:36:58.791Z,98076.20
2019-05-16T14:39:29.009Z,98072.55
2019-05-16T14:41:59.220Z,98076.08
2019-05-16T14:44:29.405Z,98069.50
2019-05-16T14:46:59.620Z,98061.91
2019-05-16T14:49:29.847Z,98062.95
2019-05-16T14:52:00.410Z,98062.86
2019-05-16T14:54:30.591Z,98058.56
2019-05-16T14:57:01.717Z,98051.25
2019-05-16T14:59:33.024Z,98051.71
2019-05-16T15:02:03.298Z,98055.42
2019-05-16T15:04:34.504Z,98049.77
2019-05-16T15:07:07.002Z,98046.30
2019-05-16T15:09:38.064Z,98039.98
2019-05-16T15:12:08.468Z,98039.89
2019-05-16T15:14:39.723Z,98044.25
2019-05-16T15:17:10.051Z,98038.12
2019-05-16T15:19:40.277Z,98032.56
2019-05-16T15:22:10.556Z,98030.72
2019-05-16T15:24:40.802Z,98033.45
2019-05-16T15:27:12.006Z,98034.93
2019-05-16T15:29:42.657Z,98027.75
2019-05-16T15:32:12.876Z,98034.75
2019-05-16T15:34:43.055Z,98027.53
2019-05-16T15:37:13.631Z,98028.47
2019-05-16T15:39:43.826Z,98026.77
2019-05-16T15:42:17.683Z,98023.78
2019-05-16T15:44:46.044Z,98021.84
2019-05-16T15:47:17.647Z,98020.34
2019-05-16T15:49:47.982Z,98020.48
2019-05-16T15:52:18.966Z,98010.14
2019-05-16T15:54:49.947Z,98006.75
2019-05-16T15:57:21.143Z,97998.28
2019-05-16T15:59:51.688Z,97999.31
2019-05-16T16:02:22.197Z,97994.05
2019-05-16T16:04:52.391Z,97989.62
2019-05-16T16:07:22.616Z,97984.84
2019-05-16T16:09:53.077Z,97983.80
2019-05-16T16:12:23.295Z,97988.51
2019-05-16T16:14:53.472Z,97983.20
2019-05-16T16:17:23.669Z,97979.74
2019-05-16T16:19:53.976Z,97980.80
2019-05-16T16:22:26.835Z,97972.31
2019-05-16T16:24:57.483Z,97972.99
2019-05-16T16:27:28.384Z,97975.67
2019-05-16T16:29:58.970Z,97966.48
2019-05-16T16:32:29.522Z,97964.44
2019-05-16T16:34:59.705Z,97959.26
2019-05-16T16:37:30.017Z,97959.44
2019-05-16T16:40:00.298Z,97957.77
2019-05-16T16:42:30.880Z,97961.08
2019-05-16T16:45:01.498Z,97960.29
2019-05-16T16:47:31.725Z,97963.34
2019-05-16T16:50:01.970Z,97954.00
2019-05-16T16:52:32.281Z,97954.55
2019-05-16T16:55:02.477Z,97953.14
2019-05-16T16:57:33.071Z,97951.06
2019-05-16T17:00:03.352Z,97946.09
2019-05-16T17:02:37.424Z,97940.41
2019-05-16T17:05:12.706Z,97951.21
2019-05-16T17:07:41.188Z,97947.17
2019-05-16T17:10:11.971Z,97941.90
2019-05-16T17:12:42.668Z,97939.59
2019-05-16T17:15:16.960Z,97939.30
2019-05-16T17:17:46.816Z,97941.05
2019-05-16T17:20:18.229Z,97942.17
2019-05-16T17:22:48.885Z,97942.36
2019-05-16T17:25:19.355Z,97944.64
2019-05-16T17:27:50.442Z,97944.25
2019-05-16T17:30:22.822Z,97945.45
2019-05-16T17:32:53.109Z,97945.13
2019-05-16T17:35:23.675Z,97940.12
2019-05-16T17:37:53.884Z,97943.34
2019-05-16T17:40:24.162Z,97941.52
2019-05-16T17:42:56.724Z,97939.53
2019-05-16T17:45:26.730Z,97935.66
2019-05-16T17:47:57.625Z,97931.31
2019-05-16T17:50:30.134Z,97925.61
2019-05-16T17:53:00.520Z,97928.46
2019-05-16T17:55:31.195Z,97921.89
2019-05-16T17:58:05.404Z,97918.97
2019-05-16T18:00:33.821Z,97916.95
2019-05-16T18:03:06.423Z,97913.23
2019-05-16T18:05:37.095Z,97912.18
2019-05-16T18:08:07.697Z,97916.50
2019-05-16T18:10:39.294Z,97912.89
2019-05-16T18:13:09.718Z,97910.30
2019-05-16T18:15:41.129Z,97907.03
2019-05-16T18:18:11.337Z,97904.37
2019-05-16T18:20:54.930Z,97900.22
2019-05-16T18:23:16.305Z,97900.30
2019-05-16T18:25:47.002Z,97900.33
2019-05-16T18:28:17.757Z,97901.89
2019-05-16T18:30:48.406Z,97901.13
2019-05-16T18:33:18.605Z,97903.81
2019-05-16T18:35:48.833Z,97900.59
2019-05-16T18:38:19.101Z,97908.27
2019-05-16T18:40:49.639Z,97904.71
2019-05-16T18:43:21.459Z,97901.55
2019-05-16T18:45:52.919Z,97903.09
2019-05-16T18:48:23.134Z,97902.15
2019-05-16T18:50:54.224Z,97907.77
2019-05-16T18:53:26.831Z,97905.95
2019-05-16T18:55:57.187Z,97902.75
2019-05-16T18:58:27.867Z,97900.91
2019-05-16T19:00:58.086Z,97898.33
2019-05-16T19:03:28.901Z,97897.92
2019-05-16T19:05:59.104Z,97902.03
2019-05-16T19:08:29.291Z,97898.81
2019-05-16T19:11:00.023Z,97895.72
2019-05-16T19:13:30.599Z,97892.63
2019-05-16T19:16:01.141Z,97896.13
2019-05-16T19:18:31.326Z,97889.01
2019-05-16T19:21:01.936Z,97889.70
2019-05-16T19:23:32.532Z,97890.61
2019-05-16T19:26:02.736Z,97888.41
2019-05-16T19:28:33.011Z,97887.36
2019-05-16T19:31:03.604Z,97895.00
2019-05-16T19:33:33.845Z,97893.32
2019-05-16T19:36:04.236Z,97889.50
2019-05-16T19:38:37.250Z,97891.13
2019-05-16T19:41:08.052Z,97892.73
2019-05-16T19:43:40.137Z,97886.30
2019-05-16T19:46:10.670Z,97889.87
2019-05-16T19:48:42.473Z,97888.20
2019-05-16T19:51:12.820Z,97884.75
2019-05-16T19:53:43.392Z,97883.66
2019-05-16T19:56:13.694Z,97887.94
2019-05-16T19:58:46.647Z,97891.16
2019-05-16T20:01:16.804Z,97884.67
2019-05-16T20:03:47.257Z,97889.56
2019-05-16T20:06:17.516Z,97885.66
2019-05-16T20:08:47.725Z,97890.55
2019-05-16T20:11:17.930Z,97889.29
2019-05-16T20:13:48.128Z,97893.22
2019-05-16T20:16:18.839Z,97894.73
2019-05-16T20:18:50.142Z,97896.34
2019-05-16T20:21:21.374Z,97896.39
2019-05-16T20:23:51.566Z,97894.58
2019-05-16T20:26:22.305Z,97892.41
2019-05-16T20:28:52.989Z,97886.45
2019-05-16T20:31:23.685Z,97887.34
2019-05-16T20:33:54.332Z,97889.69
2019-05-16T20:36:26.431Z,97885.66
2019-05-16T20:38:57.016Z,97890.63
2019-05-16T20:41:27.417Z,97885.73
2019-05-16T20:43:57.591Z,97889.84
2019-05-16T20:46:27.874Z,97887.52
2019-05-16T20:48:59.012Z,97879.50
2019-05-16T20:51:29.361Z,97879.06
2019-05-16T20:53:59.657Z,97876.50
2019-05-16T20:56:30.081Z,97881.22
2019-05-16T20:59:00.274Z,97875.49
2019-05-16T21:01:30.870Z,97878.55
2019-05-16T21:04:01.232Z,97873.04
2019-05-16T21:06:31.619Z,97869.28
2019-05-16T21:09:01.791Z,97869.16
2019-05-16T21:11:32.171Z,97865.73
2019-05-16T21:14:02.793Z,97866.43
2019-05-16T21:16:33.528Z,97865.03
2019-05-16T21:19:03.704Z,97860.73
2019-05-16T21:21:36.708Z,97864.78
2019-05-16T21:24:07.085Z,97866.98
2019-05-16T21:26:37.437Z,97862.91
2019-05-16T21:29:09.463Z,97861.13
2019-05-16T21:31:39.970Z,97860.77
2019-05-16T21:34:10.217Z,97859.36
2019-05-16T21:36:40.423Z,97851.75
2019-05-16T21:39:10.924Z,97856.61
2019-05-16T21:41:41.481Z,97851.89
2019-05-16T21:44:11.740Z,97849.27
2019-05-16T21:46:42.437Z,97848.19
2019-05-16T21:49:12.614Z,97846.27
2019-05-16T21:51:43.419Z,97841.23
2019-05-16T21:54:13.755Z,97838.31
2019-05-16T21:56:43.959Z,97839.73
2019-05-16T21:59:14.140Z,97836.13
2019-05-16T22:01:47.128Z,97836.35
2019-05-16T22:04:16.865Z,97838.64
2019-05-16T22:06:47.785Z,97835.63
2019-05-16T22:09:18.072Z,97834.18
2019-05-16T22:11:48.269Z,97832.01
2019-05-16T22:14:22.390Z,97832.06
2019-05-16T22:16:52.993Z,97828.44
2019-05-16T22:19:23.188Z,97831.95
2019-05-16T22:21:53.748Z,97837.16
2019-05-16T22:24:23.926Z,97827.16
2019-05-16T22:26:54.134Z,97820.89
2019-05-16T22:29:26.319Z,97816.05
2019-05-16T22:31:56.252Z,97816.05
2019-05-16T22:34:26.552Z,97819.56
2019-05-16T22:36:58.173Z,97816.43
2019-05-16T22:39:28.785Z,97813.05
2019-05-16T22:41:59.186Z,97815.98
2019-05-16T22:44:29.358Z,97814.05
2019-05-16T22:46:59.556Z,97813.45
2019-05-16T22:49:29.763Z,97818.39
2019-05-16T22:52:00.384Z,97810.54
2019-05-16T22:54:30.575Z,97812.84
2019-05-16T22:57:00.811Z,97810.30
2019-05-16T22:59:31.007Z,97811.50
2019-05-16T23:02:01.212Z,97811.88
2019-05-16T23:04:31.403Z,97809.44
2019-05-16T23:07:01.655Z,97804.13
2019-05-16T23:09:31.962Z,97795.08
2019-05-16T23:12:02.463Z,97795.08
2019-05-16T23:14:32.737Z,97798.33
2019-05-16T23:17:03.609Z,97791.44
2019-05-16T23:19:34.109Z,97792.31
2019-05-16T23:22:04.289Z,97792.42
2019-05-16T23:24:36.824Z,97785.64
2019-05-16T23:27:07.111Z,97781.45
2019-05-16T23:29:39.183Z,97787.00
2019-05-16T23:32:09.370Z,97786.27
2019-05-16T23:34:39.637Z,97780.81
2019-05-16T23:37:09.956Z,97780.33
2019-05-16T23:39:40.253Z,97781.55
2019-05-16T23:42:11.130Z,97780.92
2019-05-16T23:44:41.640Z,97774.03
2019-05-16T23:47:12.300Z,97773.68
2019-05-16T23:49:42.498Z,97761.48
2019-05-16T23:52:13.867Z,97760.96
2019-05-16T23:54:47.358Z,97763.02
2019-05-16T23:57:17.474Z,97760.45
2019-05-16T23:59:47.691Z,97756.44
